sensor_id;sensor_type;location;lat;lon;timestamp;P1;durP1;ratioP1;P2;durP2;ratioP2
11614;SDS011;5863;52.832;4.758;2024-01-25T00:02:23;30.35;;;6.20;;
11614;SDS011;5863;52.832;4.758;2024-01-25T00:04:51;29.13;;;5.18;;
11614;SDS011;5863;52.832;4.758;2024-01-25T00:07:18;30.05;;;5.60;;
11614;SDS011;5863;52.832;4.758;2024-01-25T00:09:45;30.50;;;6.30;;
11614;SDS011;5863;52.832;4.758;2024-01-25T00:12:11;33.55;;;5.63;;
11614;SDS011;5863;52.832;4.758;2024-01-25T00:14:38;26.02;;;5.40;;
11614;SDS011;5863;52.832;4.758;2024-01-25T00:17:05;27.58;;;5.72;;
11614;SDS011;5863;52.832;4.758;2024-01-25T00:19:33;30.13;;;6.60;;
11614;SDS011;5863;52.832;4.758;2024-01-25T00:22:01;26.02;;;6.10;;
11614;SDS011;5863;52.832;4.758;2024-01-25T00:24:28;37.70;;;5.93;;
11614;SDS011;5863;52.832;4.758;2024-01-25T00:26:55;30.83;;;6.43;;
11614;SDS011;5863;52.832;4.758;2024-01-25T00:29:22;35.58;;;6.18;;
11614;SDS011;5863;52.832;4.758;2024-01-25T00:31:49;33.60;;;6.15;;
11614;SDS011;5863;52.832;4.758;2024-01-25T00:34:16;33.45;;;6.05;;
11614;SDS011;5863;52.832;4.758;2024-01-25T00:36:43;29.45;;;5.78;;
11614;SDS011;5863;52.832;4.758;2024-01-25T00:39:12;40.33;;;6.60;;
11614;SDS011;5863;52.832;4.758;2024-01-25T00:41:39;35.05;;;6.10;;
11614;SDS011;5863;52.832;4.758;2024-01-25T00:44:08;43.42;;;6.55;;
11614;SDS011;5863;52.832;4.758;2024-01-25T00:46:36;32.50;;;5.63;;
11614;SDS011;5863;52.832;4.758;2024-01-25T00:49:03;33.33;;;5.80;;
11614;SDS011;5863;52.832;4.758;2024-01-25T00:51:31;26.85;;;5.35;;
11614;SDS011;5863;52.832;4.758;2024-01-25T00:53:58;39.47;;;5.93;;
11614;SDS011;5863;52.832;4.758;2024-01-25T00:56:27;37.60;;;6.10;;
11614;SDS011;5863;52.832;4.758;2024-01-25T00:58:55;27.13;;;5.82;;
11614;SDS011;5863;52.832;4.758;2024-01-25T01:01:22;34.20;;;6.37;;
11614;SDS011;5863;52.832;4.758;2024-01-25T01:03:51;32.43;;;5.57;;
11614;SDS011;5863;52.832;4.758;2024-01-25T01:06:21;36.67;;;6.07;;
11614;SDS011;5863;52.832;4.758;2024-01-25T01:08:49;28.70;;;5.30;;
11614;SDS011;5863;52.832;4.758;2024-01-25T01:11:16;31.10;;;5.70;;
11614;SDS011;5863;52.832;4.758;2024-01-25T01:13:44;41.13;;;6.32;;
11614;SDS011;5863;52.832;4.758;2024-01-25T01:16:11;37.35;;;5.75;;
11614;SDS011;5863;52.832;4.758;2024-01-25T01:18:38;30.05;;;6.18;;
11614;SDS011;5863;52.832;4.758;2024-01-25T01:21:05;36.33;;;6.00;;
11614;SDS011;5863;52.832;4.758;2024-01-25T01:23:32;38.30;;;7.32;;
11614;SDS011;5863;52.832;4.758;2024-01-25T01:25:59;27.27;;;6.25;;
11614;SDS011;5863;52.832;4.758;2024-01-25T01:28:26;34.58;;;5.72;;
11614;SDS011;5863;52.832;4.758;2024-01-25T01:30:54;29.08;;;5.55;;
11614;SDS011;5863;52.832;4.758;2024-01-25T01:33:21;34.75;;;6.47;;
11614;SDS011;5863;52.832;4.758;2024-01-25T01:35:47;29.20;;;5.37;;
11614;SDS011;5863;52.832;4.758;2024-01-25T01:38:14;38.35;;;5.68;;
11614;SDS011;5863;52.832;4.758;2024-01-25T01:40:41;27.30;;;5.25;;
11614;SDS011;5863;52.832;4.758;2024-01-25T01:43:17;28.95;;;5.10;;
11614;SDS011;5863;52.832;4.758;2024-01-25T01:45:44;33.95;;;5.90;;
11614;SDS011;5863;52.832;4.758;2024-01-25T01:48:12;31.90;;;5.93;;
11614;SDS011;5863;52.832;4.758;2024-01-25T01:50:39;28.77;;;6.30;;
11614;SDS011;5863;52.832;4.758;2024-01-25T01:53:06;35.42;;;6.70;;
11614;SDS011;5863;52.832;4.758;2024-01-25T01:55:33;28.45;;;5.95;;
11614;SDS011;5863;52.832;4.758;2024-01-25T01:58:00;30.27;;;5.60;;
11614;SDS011;5863;52.832;4.758;2024-01-25T02:00:28;33.50;;;6.65;;
11614;SDS011;5863;52.832;4.758;2024-01-25T02:02:57;22.75;;;4.75;;
11614;SDS011;5863;52.832;4.758;2024-01-25T02:05:25;31.98;;;6.03;;
11614;SDS011;5863;52.832;4.758;2024-01-25T02:07:52;30.67;;;5.88;;
11614;SDS011;5863;52.832;4.758;2024-01-25T02:10:19;36.97;;;6.40;;
11614;SDS011;5863;52.832;4.758;2024-01-25T02:12:46;33.00;;;6.30;;
11614;SDS011;5863;52.832;4.758;2024-01-25T02:15:13;40.13;;;6.53;;
11614;SDS011;5863;52.832;4.758;2024-01-25T02:17:39;32.45;;;5.47;;
11614;SDS011;5863;52.832;4.758;2024-01-25T02:20:07;33.08;;;5.80;;
11614;SDS011;5863;52.832;4.758;2024-01-25T02:22:36;41.60;;;6.18;;
11614;SDS011;5863;52.832;4.758;2024-01-25T02:25:03;36.33;;;6.60;;
11614;SDS011;5863;52.832;4.758;2024-01-25T02:27:30;35.42;;;5.50;;
11614;SDS011;5863;52.832;4.758;2024-01-25T02:29:58;35.72;;;6.38;;
11614;SDS011;5863;52.832;4.758;2024-01-25T02:32:25;33.42;;;6.32;;
11614;SDS011;5863;52.832;4.758;2024-01-25T02:34:52;39.65;;;6.28;;
11614;SDS011;5863;52.832;4.758;2024-01-25T02:37:19;32.08;;;6.78;;
11614;SDS011;5863;52.832;4.758;2024-01-25T02:39:47;32.45;;;6.40;;
11614;SDS011;5863;52.832;4.758;2024-01-25T02:42:14;30.75;;;5.68;;
11614;SDS011;5863;52.832;4.758;2024-01-25T02:44:41;32.10;;;5.70;;
11614;SDS011;5863;52.832;4.758;2024-01-25T02:47:08;36.15;;;6.10;;
11614;SDS011;5863;52.832;4.758;2024-01-25T02:49:35;37.42;;;5.97;;
11614;SDS011;5863;52.832;4.758;2024-01-25T02:52:02;30.20;;;5.93;;
11614;SDS011;5863;52.832;4.758;2024-01-25T02:54:30;35.10;;;6.60;;
11614;SDS011;5863;52.832;4.758;2024-01-25T02:57:02;28.25;;;5.90;;
11614;SDS011;5863;52.832;4.758;2024-01-25T02:59:29;34.50;;;6.13;;
11614;SDS011;5863;52.832;4.758;2024-01-25T03:01:56;37.42;;;6.47;;
11614;SDS011;5863;52.832;4.758;2024-01-25T03:04:23;26.80;;;5.05;;
11614;SDS011;5863;52.832;4.758;2024-01-25T03:06:50;26.83;;;5.10;;
11614;SDS011;5863;52.832;4.758;2024-01-25T03:09:17;32.28;;;6.07;;
11614;SDS011;5863;52.832;4.758;2024-01-25T03:11:46;33.00;;;6.38;;
11614;SDS011;5863;52.832;4.758;2024-01-25T03:14:13;31.80;;;5.78;;
11614;SDS011;5863;52.832;4.758;2024-01-25T03:16:40;30.50;;;5.72;;
11614;SDS011;5863;52.832;4.758;2024-01-25T03:19:08;32.88;;;5.78;;
11614;SDS011;5863;52.832;4.758;2024-01-25T03:21:35;36.53;;;6.50;;
11614;SDS011;5863;52.832;4.758;2024-01-25T03:24:01;31.00;;;5.68;;
11614;SDS011;5863;52.832;4.758;2024-01-25T03:26:28;35.88;;;6.10;;
11614;SDS011;5863;52.832;4.758;2024-01-25T03:28:55;29.23;;;6.07;;
11614;SDS011;5863;52.832;4.758;2024-01-25T03:31:24;34.50;;;6.47;;
11614;SDS011;5863;52.832;4.758;2024-01-25T03:33:50;35.72;;;7.05;;
11614;SDS011;5863;52.832;4.758;2024-01-25T03:36:17;30.88;;;5.65;;
11614;SDS011;5863;52.832;4.758;2024-01-25T03:38:44;37.13;;;6.47;;
11614;SDS011;5863;52.832;4.758;2024-01-25T03:41:11;37.67;;;6.13;;
11614;SDS011;5863;52.832;4.758;2024-01-25T03:43:38;38.33;;;6.22;;
11614;SDS011;5863;52.832;4.758;2024-01-25T03:46:04;43.38;;;7.07;;
11614;SDS011;5863;52.832;4.758;2024-01-25T03:48:33;38.72;;;5.53;;
11614;SDS011;5863;52.832;4.758;2024-01-25T03:51:00;36.80;;;5.82;;
11614;SDS011;5863;52.832;4.758;2024-01-25T03:53:26;32.85;;;5.82;;
11614;SDS011;5863;52.832;4.758;2024-01-25T03:55:53;32.55;;;6.18;;
11614;SDS011;5863;52.832;4.758;2024-01-25T03:58:20;30.25;;;6.20;;
11614;SDS011;5863;52.832;4.758;2024-01-25T04:00:47;38.50;;;6.35;;
11614;SDS011;5863;52.832;4.758;2024-01-25T04:03:14;33.03;;;6.07;;
11614;SDS011;5863;52.832;4.758;2024-01-25T04:05:42;31.35;;;5.40;;
11614;SDS011;5863;52.832;4.758;2024-01-25T04:08:09;37.28;;;6.40;;
11614;SDS011;5863;52.832;4.758;2024-01-25T04:10:36;34.83;;;6.05;;
11614;SDS011;5863;52.832;4.758;2024-01-25T04:13:03;32.00;;;7.15;;
11614;SDS011;5863;52.832;4.758;2024-01-25T04:15:31;40.55;;;5.93;;
11614;SDS011;5863;52.832;4.758;2024-01-25T04:17:58;29.10;;;5.85;;
11614;SDS011;5863;52.832;4.758;2024-01-25T04:20:25;39.08;;;6.53;;
11614;SDS011;5863;52.832;4.758;2024-01-25T04:22:53;31.90;;;6.30;;
11614;SDS011;5863;52.832;4.758;2024-01-25T04:25:20;41.72;;;6.20;;
11614;SDS011;5863;52.832;4.758;2024-01-25T04:27:47;36.33;;;5.85;;
11614;SDS011;5863;52.832;4.758;2024-01-25T04:30:14;38.95;;;6.07;;
11614;SDS011;5863;52.832;4.758;2024-01-25T04:32:41;34.80;;;5.72;;
11614;SDS011;5863;52.832;4.758;2024-01-25T04:35:08;34.75;;;6.00;;
11614;SDS011;5863;52.832;4.758;2024-01-25T04:37:35;33.10;;;5.93;;
11614;SDS011;5863;52.832;4.758;2024-01-25T04:40:04;38.30;;;5.70;;
11614;SDS011;5863;52.832;4.758;2024-01-25T04:42:31;32.72;;;6.20;;
11614;SDS011;5863;52.832;4.758;2024-01-25T04:44:59;34.30;;;5.50;;
11614;SDS011;5863;52.832;4.758;2024-01-25T04:47:25;33.77;;;5.70;;
11614;SDS011;5863;52.832;4.758;2024-01-25T04:49:52;35.95;;;6.18;;
11614;SDS011;5863;52.832;4.758;2024-01-25T04:52:19;28.55;;;6.07;;
11614;SDS011;5863;52.832;4.758;2024-01-25T04:54:46;31.13;;;5.90;;
11614;SDS011;5863;52.832;4.758;2024-01-25T04:57:14;38.50;;;6.23;;
11614;SDS011;5863;52.832;4.758;2024-01-25T04:59:41;33.55;;;6.25;;
11614;SDS011;5863;52.832;4.758;2024-01-25T05:02:08;34.23;;;5.63;;
11614;SDS011;5863;52.832;4.758;2024-01-25T05:04:35;31.43;;;5.70;;
11614;SDS011;5863;52.832;4.758;2024-01-25T05:07:02;29.80;;;5.77;;
11614;SDS011;5863;52.832;4.758;2024-01-25T05:09:29;30.27;;;5.50;;
11614;SDS011;5863;52.832;4.758;2024-01-25T05:11:56;39.20;;;6.17;;
11614;SDS011;5863;52.832;4.758;2024-01-25T05:14:26;26.47;;;6.27;;
11614;SDS011;5863;52.832;4.758;2024-01-25T05:16:53;37.80;;;6.23;;
11614;SDS011;5863;52.832;4.758;2024-01-25T05:19:19;33.07;;;5.93;;
11614;SDS011;5863;52.832;4.758;2024-01-25T05:21:46;36.42;;;5.85;;
11614;SDS011;5863;52.832;4.758;2024-01-25T05:24:13;30.80;;;5.78;;
11614;SDS011;5863;52.832;4.758;2024-01-25T05:26:40;32.72;;;5.35;;
11614;SDS011;5863;52.832;4.758;2024-01-25T05:29:07;31.30;;;6.17;;
11614;SDS011;5863;52.832;4.758;2024-01-25T05:31:35;32.75;;;5.57;;
11614;SDS011;5863;52.832;4.758;2024-01-25T05:34:02;35.93;;;6.87;;
11614;SDS011;5863;52.832;4.758;2024-01-25T05:36:29;32.20;;;5.60;;
11614;SDS011;5863;52.832;4.758;2024-01-25T05:38:56;31.80;;;6.13;;
11614;SDS011;5863;52.832;4.758;2024-01-25T05:41:24;30.53;;;6.20;;
11614;SDS011;5863;52.832;4.758;2024-01-25T05:43:50;31.37;;;6.10;;
11614;SDS011;5863;52.832;4.758;2024-01-25T05:46:17;33.97;;;6.50;;
11614;SDS011;5863;52.832;4.758;2024-01-25T05:48:45;35.90;;;9.03;;
11614;SDS011;5863;52.832;4.758;2024-01-25T05:51:12;36.27;;;9.20;;
11614;SDS011;5863;52.832;4.758;2024-01-25T05:53:40;38.75;;;10.50;;
11614;SDS011;5863;52.832;4.758;2024-01-25T05:56:06;38.80;;;11.65;;
11614;SDS011;5863;52.832;4.758;2024-01-25T05:58:33;40.77;;;13.87;;
11614;SDS011;5863;52.832;4.758;2024-01-25T06:01:00;42.55;;;12.85;;
11614;SDS011;5863;52.832;4.758;2024-01-25T06:03:27;28.17;;;9.27;;
11614;SDS011;5863;52.832;4.758;2024-01-25T06:05:55;30.00;;;7.57;;
11614;SDS011;5863;52.832;4.758;2024-01-25T06:08:22;27.50;;;6.00;;
11614;SDS011;5863;52.832;4.758;2024-01-25T06:10:49;37.03;;;6.83;;
11614;SDS011;5863;52.832;4.758;2024-01-25T06:13:16;31.80;;;5.88;;
11614;SDS011;5863;52.832;4.758;2024-01-25T06:15:43;29.23;;;5.47;;
11614;SDS011;5863;52.832;4.758;2024-01-25T06:18:10;31.23;;;6.33;;
11614;SDS011;5863;52.832;4.758;2024-01-25T06:20:36;26.97;;;6.37;;
11614;SDS011;5863;52.832;4.758;2024-01-25T06:23:05;34.13;;;8.93;;
11614;SDS011;5863;52.832;4.758;2024-01-25T06:25:32;33.03;;;8.07;;
11614;SDS011;5863;52.832;4.758;2024-01-25T06:28:00;29.17;;;7.97;;
11614;SDS011;5863;52.832;4.758;2024-01-25T06:30:28;34.07;;;6.83;;
11614;SDS011;5863;52.832;4.758;2024-01-25T06:32:57;29.80;;;6.00;;
11614;SDS011;5863;52.832;4.758;2024-01-25T06:35:24;37.85;;;7.47;;
11614;SDS011;5863;52.832;4.758;2024-01-25T06:37:50;26.10;;;7.67;;
11614;SDS011;5863;52.832;4.758;2024-01-25T06:40:19;38.17;;;9.43;;
11614;SDS011;5863;52.832;4.758;2024-01-25T06:42:45;37.57;;;7.03;;
11614;SDS011;5863;52.832;4.758;2024-01-25T06:45:12;32.10;;;6.57;;
11614;SDS011;5863;52.832;4.758;2024-01-25T06:47:39;33.37;;;5.73;;
11614;SDS011;5863;52.832;4.758;2024-01-25T06:50:06;25.67;;;5.53;;
11614;SDS011;5863;52.832;4.758;2024-01-25T06:52:34;30.30;;;5.53;;
11614;SDS011;5863;52.832;4.758;2024-01-25T06:55:01;36.23;;;5.97;;
11614;SDS011;5863;52.832;4.758;2024-01-25T06:57:29;31.57;;;5.00;;
11614;SDS011;5863;52.832;4.758;2024-01-25T06:59:55;30.45;;;5.53;;
11614;SDS011;5863;52.832;4.758;2024-01-25T07:02:22;32.10;;;5.37;;
11614;SDS011;5863;52.832;4.758;2024-01-25T07:04:48;27.50;;;5.27;;
11614;SDS011;5863;52.832;4.758;2024-01-25T07:07:18;30.20;;;5.63;;
11614;SDS011;5863;52.832;4.758;2024-01-25T07:09:44;28.57;;;4.93;;
11614;SDS011;5863;52.832;4.758;2024-01-25T07:12:11;30.30;;;5.63;;
11614;SDS011;5863;52.832;4.758;2024-01-25T07:14:39;33.87;;;5.60;;
11614;SDS011;5863;52.832;4.758;2024-01-25T07:17:06;29.98;;;4.97;;
11614;SDS011;5863;52.832;4.758;2024-01-25T07:19:33;25.45;;;5.00;;
11614;SDS011;5863;52.832;4.758;2024-01-25T07:22:01;30.42;;;5.03;;
11614;SDS011;5863;52.832;4.758;2024-01-25T07:24:27;27.85;;;5.65;;
11614;SDS011;5863;52.832;4.758;2024-01-25T07:26:54;30.87;;;5.80;;
11614;SDS011;5863;52.832;4.758;2024-01-25T07:29:21;37.70;;;6.13;;
11614;SDS011;5863;52.832;4.758;2024-01-25T07:31:49;28.10;;;5.38;;
11614;SDS011;5863;52.832;4.758;2024-01-25T07:34:16;32.20;;;5.53;;
11614;SDS011;5863;52.832;4.758;2024-01-25T07:36:43;26.92;;;5.05;;
11614;SDS011;5863;52.832;4.758;2024-01-25T07:39:10;35.00;;;5.28;;
11614;SDS011;5863;52.832;4.758;2024-01-25T07:41:37;31.48;;;5.20;;
11614;SDS011;5863;52.832;4.758;2024-01-25T07:44:04;22.55;;;5.13;;
11614;SDS011;5863;52.832;4.758;2024-01-25T07:46:31;30.33;;;4.72;;
11614;SDS011;5863;52.832;4.758;2024-01-25T07:48:59;26.33;;;5.60;;
11614;SDS011;5863;52.832;4.758;2024-01-25T07:51:25;30.73;;;5.72;;
11614;SDS011;5863;52.832;4.758;2024-01-25T07:53:53;30.98;;;5.38;;
11614;SDS011;5863;52.832;4.758;2024-01-25T07:56:20;28.60;;;5.85;;
11614;SDS011;5863;52.832;4.758;2024-01-25T07:58:48;30.13;;;5.60;;
11614;SDS011;5863;52.832;4.758;2024-01-25T08:01:17;35.03;;;5.65;;
11614;SDS011;5863;52.832;4.758;2024-01-25T08:03:44;28.87;;;6.60;;
11614;SDS011;5863;52.832;4.758;2024-01-25T08:06:12;28.65;;;6.00;;
11614;SDS011;5863;52.832;4.758;2024-01-25T08:08:39;23.20;;;4.93;;
11614;SDS011;5863;52.832;4.758;2024-01-25T08:11:06;30.57;;;5.47;;
11614;SDS011;5863;52.832;4.758;2024-01-25T08:13:33;27.00;;;5.70;;
11614;SDS011;5863;52.832;4.758;2024-01-25T08:16:00;37.58;;;6.50;;
11614;SDS011;5863;52.832;4.758;2024-01-25T08:18:27;37.10;;;6.40;;
11614;SDS011;5863;52.832;4.758;2024-01-25T08:20:55;31.58;;;5.85;;
11614;SDS011;5863;52.832;4.758;2024-01-25T08:23:23;38.20;;;5.93;;
11614;SDS011;5863;52.832;4.758;2024-01-25T08:25:50;39.13;;;5.80;;
11614;SDS011;5863;52.832;4.758;2024-01-25T08:28:17;25.87;;;5.53;;
11614;SDS011;5863;52.832;4.758;2024-01-25T08:30:44;29.43;;;5.40;;
11614;SDS011;5863;52.832;4.758;2024-01-25T08:33:11;31.10;;;5.38;;
11614;SDS011;5863;52.832;4.758;2024-01-25T08:35:39;28.37;;;5.60;;
11614;SDS011;5863;52.832;4.758;2024-01-25T08:38:07;34.47;;;5.87;;
11614;SDS011;5863;52.832;4.758;2024-01-25T08:40:35;22.00;;;5.13;;
11614;SDS011;5863;52.832;4.758;2024-01-25T08:43:02;23.98;;;5.38;;
11614;SDS011;5863;52.832;4.758;2024-01-25T08:45:29;22.35;;;5.20;;
11614;SDS011;5863;52.832;4.758;2024-01-25T08:47:56;34.22;;;5.75;;
11614;SDS011;5863;52.832;4.758;2024-01-25T08:50:23;32.08;;;5.63;;
11614;SDS011;5863;52.832;4.758;2024-01-25T08:52:50;24.38;;;5.32;;
11614;SDS011;5863;52.832;4.758;2024-01-25T08:55:17;26.25;;;5.50;;
11614;SDS011;5863;52.832;4.758;2024-01-25T08:57:45;25.88;;;5.47;;
11614;SDS011;5863;52.832;4.758;2024-01-25T09:00:12;26.50;;;5.60;;
11614;SDS011;5863;52.832;4.758;2024-01-25T09:02:40;26.23;;;5.43;;
11614;SDS011;5863;52.832;4.758;2024-01-25T09:05:07;41.08;;;6.43;;
11614;SDS011;5863;52.832;4.758;2024-01-25T09:07:34;25.25;;;5.03;;
11614;SDS011;5863;52.832;4.758;2024-01-25T09:10:02;27.88;;;6.07;;
11614;SDS011;5863;52.832;4.758;2024-01-25T09:12:29;25.23;;;5.25;;
11614;SDS011;5863;52.832;4.758;2024-01-25T09:14:58;39.40;;;6.72;;
11614;SDS011;5863;52.832;4.758;2024-01-25T09:17:24;28.17;;;5.10;;
11614;SDS011;5863;52.832;4.758;2024-01-25T09:19:51;28.00;;;5.28;;
11614;SDS011;5863;52.832;4.758;2024-01-25T09:22:18;26.42;;;5.28;;
11614;SDS011;5863;52.832;4.758;2024-01-25T09:24:45;21.90;;;5.50;;
11614;SDS011;5863;52.832;4.758;2024-01-25T09:27:12;24.88;;;5.40;;
11614;SDS011;5863;52.832;4.758;2024-01-25T09:29:39;28.13;;;4.97;;
11614;SDS011;5863;52.832;4.758;2024-01-25T09:32:08;25.58;;;6.30;;
11614;SDS011;5863;52.832;4.758;2024-01-25T09:34:36;29.55;;;4.82;;
11614;SDS011;5863;52.832;4.758;2024-01-25T09:37:03;29.17;;;6.35;;
11614;SDS011;5863;52.832;4.758;2024-01-25T09:39:30;30.42;;;5.75;;
11614;SDS011;5863;52.832;4.758;2024-01-25T09:41:58;19.92;;;4.78;;
11614;SDS011;5863;52.832;4.758;2024-01-25T09:44:24;25.58;;;5.43;;
11614;SDS011;5863;52.832;4.758;2024-01-25T09:46:51;28.05;;;5.05;;
11614;SDS011;5863;52.832;4.758;2024-01-25T09:49:19;29.30;;;5.43;;
11614;SDS011;5863;52.832;4.758;2024-01-25T09:51:46;32.00;;;6.05;;
11614;SDS011;5863;52.832;4.758;2024-01-25T09:54:17;17.02;;;4.68;;
11614;SDS011;5863;52.832;4.758;2024-01-25T09:56:44;28.65;;;5.65;;
11614;SDS011;5863;52.832;4.758;2024-01-25T09:59:12;24.40;;;5.28;;
11614;SDS011;5863;52.832;4.758;2024-01-25T10:01:40;27.80;;;5.50;;
11614;SDS011;5863;52.832;4.758;2024-01-25T10:04:07;22.65;;;5.30;;
11614;SDS011;5863;52.832;4.758;2024-01-25T10:06:35;31.33;;;5.95;;
11614;SDS011;5863;52.832;4.758;2024-01-25T10:09:04;23.50;;;5.28;;
11614;SDS011;5863;52.832;4.758;2024-01-25T10:11:34;29.20;;;5.70;;
11614;SDS011;5863;52.832;4.758;2024-01-25T10:14:02;31.17;;;5.13;;
11614;SDS011;5863;52.832;4.758;2024-01-25T10:16:29;31.55;;;5.95;;
11614;SDS011;5863;52.832;4.758;2024-01-25T10:18:57;20.77;;;4.85;;
11614;SDS011;5863;52.832;4.758;2024-01-25T10:21:24;16.10;;;4.93;;
11614;SDS011;5863;52.832;4.758;2024-01-25T10:23:53;23.48;;;5.60;;
11614;SDS011;5863;52.832;4.758;2024-01-25T10:26:25;27.38;;;5.50;;
11614;SDS011;5863;52.832;4.758;2024-01-25T10:28:53;26.98;;;5.38;;
11614;SDS011;5863;52.832;4.758;2024-01-25T10:31:22;21.85;;;4.97;;
11614;SDS011;5863;52.832;4.758;2024-01-25T10:33:49;27.98;;;5.72;;
11614;SDS011;5863;52.832;4.758;2024-01-25T10:36:17;28.05;;;5.20;;
11614;SDS011;5863;52.832;4.758;2024-01-25T10:38:46;28.02;;;5.68;;
11614;SDS011;5863;52.832;4.758;2024-01-25T10:41:16;22.60;;;4.32;;
11614;SDS011;5863;52.832;4.758;2024-01-25T10:43:45;27.98;;;5.63;;
11614;SDS011;5863;52.832;4.758;2024-01-25T10:46:12;24.98;;;5.05;;
11614;SDS011;5863;52.832;4.758;2024-01-25T10:48:39;29.08;;;5.05;;
11614;SDS011;5863;52.832;4.758;2024-01-25T10:51:07;29.70;;;5.32;;
11614;SDS011;5863;52.832;4.758;2024-01-25T10:53:36;26.55;;;4.53;;
11614;SDS011;5863;52.832;4.758;2024-01-25T10:56:03;26.92;;;5.25;;
11614;SDS011;5863;52.832;4.758;2024-01-25T10:58:32;25.77;;;5.32;;
11614;SDS011;5863;52.832;4.758;2024-01-25T11:01:00;21.23;;;5.28;;
11614;SDS011;5863;52.832;4.758;2024-01-25T11:03:28;23.40;;;5.15;;
11614;SDS011;5863;52.832;4.758;2024-01-25T11:06:05;24.75;;;5.35;;
11614;SDS011;5863;52.832;4.758;2024-01-25T11:08:32;27.48;;;5.80;;
11614;SDS011;5863;52.832;4.758;2024-01-25T11:10:59;24.25;;;5.47;;
11614;SDS011;5863;52.832;4.758;2024-01-25T11:13:26;20.60;;;4.50;;
11614;SDS011;5863;52.832;4.758;2024-01-25T11:15:56;23.83;;;5.18;;
11614;SDS011;5863;52.832;4.758;2024-01-25T11:18:24;22.33;;;5.07;;
11614;SDS011;5863;52.832;4.758;2024-01-25T11:20:52;23.80;;;5.00;;
11614;SDS011;5863;52.832;4.758;2024-01-25T11:23:18;26.45;;;5.40;;
11614;SDS011;5863;52.832;4.758;2024-01-25T11:25:47;21.67;;;5.60;;
11614;SDS011;5863;52.832;4.758;2024-01-25T11:28:14;24.27;;;5.32;;
11614;SDS011;5863;52.832;4.758;2024-01-25T11:30:42;20.30;;;4.82;;
11614;SDS011;5863;52.832;4.758;2024-01-25T11:33:10;33.58;;;5.13;;
11614;SDS011;5863;52.832;4.758;2024-01-25T11:35:39;25.83;;;5.57;;
11614;SDS011;5863;52.832;4.758;2024-01-25T11:38:07;24.38;;;5.55;;
11614;SDS011;5863;52.832;4.758;2024-01-25T11:40:34;25.90;;;4.95;;
11614;SDS011;5863;52.832;4.758;2024-01-25T11:43:01;22.30;;;4.90;;
11614;SDS011;5863;52.832;4.758;2024-01-25T11:45:28;23.63;;;5.43;;
11614;SDS011;5863;52.832;4.758;2024-01-25T11:47:55;24.92;;;4.68;;
11614;SDS011;5863;52.832;4.758;2024-01-25T11:50:24;23.92;;;5.45;;
11614;SDS011;5863;52.832;4.758;2024-01-25T11:52:51;20.27;;;4.35;;
11614;SDS011;5863;52.832;4.758;2024-01-25T11:55:17;18.15;;;4.45;;
11614;SDS011;5863;52.832;4.758;2024-01-25T11:57:44;21.15;;;4.57;;
11614;SDS011;5863;52.832;4.758;2024-01-25T12:00:13;25.80;;;5.32;;
11614;SDS011;5863;52.832;4.758;2024-01-25T12:02:41;26.75;;;4.53;;
11614;SDS011;5863;52.832;4.758;2024-01-25T12:05:08;24.45;;;5.10;;
11614;SDS011;5863;52.832;4.758;2024-01-25T12:07:38;28.23;;;5.65;;
11614;SDS011;5863;52.832;4.758;2024-01-25T12:10:06;25.50;;;4.57;;
11614;SDS011;5863;52.832;4.758;2024-01-25T12:12:34;22.48;;;4.88;;
11614;SDS011;5863;52.832;4.758;2024-01-25T12:15:04;24.02;;;5.45;;
11614;SDS011;5863;52.832;4.758;2024-01-25T12:17:32;26.55;;;5.28;;
11614;SDS011;5863;52.832;4.758;2024-01-25T12:20:01;23.83;;;5.18;;
11614;SDS011;5863;52.832;4.758;2024-01-25T12:22:28;21.38;;;5.25;;
11614;SDS011;5863;52.832;4.758;2024-01-25T12:24:57;25.42;;;5.30;;
11614;SDS011;5863;52.832;4.758;2024-01-25T12:27:25;29.27;;;5.97;;
11614;SDS011;5863;52.832;4.758;2024-01-25T12:29:52;26.42;;;5.20;;
11614;SDS011;5863;52.832;4.758;2024-01-25T12:32:19;24.13;;;5.60;;
11614;SDS011;5863;52.832;4.758;2024-01-25T12:34:53;29.92;;;5.40;;
11614;SDS011;5863;52.832;4.758;2024-01-25T12:37:20;23.45;;;5.28;;
11614;SDS011;5863;52.832;4.758;2024-01-25T12:39:48;23.05;;;5.75;;
11614;SDS011;5863;52.832;4.758;2024-01-25T12:42:16;21.17;;;4.25;;
11614;SDS011;5863;52.832;4.758;2024-01-25T12:44:43;23.27;;;5.25;;
11614;SDS011;5863;52.832;4.758;2024-01-25T12:47:10;27.08;;;6.22;;
11614;SDS011;5863;52.832;4.758;2024-01-25T12:49:39;22.92;;;5.03;;
11614;SDS011;5863;52.832;4.758;2024-01-25T12:52:07;23.38;;;5.25;;
11614;SDS011;5863;52.832;4.758;2024-01-25T12:54:34;26.55;;;5.60;;
11614;SDS011;5863;52.832;4.758;2024-01-25T12:57:01;26.88;;;5.38;;
11614;SDS011;5863;52.832;4.758;2024-01-25T12:59:30;23.65;;;4.82;;
11614;SDS011;5863;52.832;4.758;2024-01-25T13:01:57;19.95;;;4.97;;
11614;SDS011;5863;52.832;4.758;2024-01-25T13:04:25;19.90;;;4.80;;
11614;SDS011;5863;52.832;4.758;2024-01-25T13:06:52;25.73;;;5.63;;
11614;SDS011;5863;52.832;4.758;2024-01-25T13:09:20;23.90;;;4.40;;
11614;SDS011;5863;52.832;4.758;2024-01-25T13:11:47;24.50;;;4.72;;
11614;SDS011;5863;52.832;4.758;2024-01-25T13:14:14;31.35;;;5.95;;
11614;SDS011;5863;52.832;4.758;2024-01-25T13:16:43;20.00;;;5.07;;
11614;SDS011;5863;52.832;4.758;2024-01-25T13:19:10;27.90;;;4.90;;
11614;SDS011;5863;52.832;4.758;2024-01-25T13:21:37;24.50;;;5.55;;
11614;SDS011;5863;52.832;4.758;2024-01-25T13:24:05;23.02;;;4.60;;
11614;SDS011;5863;52.832;4.758;2024-01-25T13:26:32;24.88;;;5.25;;
11614;SDS011;5863;52.832;4.758;2024-01-25T13:29:00;23.02;;;5.57;;
11614;SDS011;5863;52.832;4.758;2024-01-25T13:31:27;28.65;;;5.30;;
11614;SDS011;5863;52.832;4.758;2024-01-25T13:33:55;28.85;;;5.82;;
11614;SDS011;5863;52.832;4.758;2024-01-25T13:36:22;26.17;;;5.90;;
11614;SDS011;5863;52.832;4.758;2024-01-25T13:38:48;25.33;;;6.28;;
11614;SDS011;5863;52.832;4.758;2024-01-25T13:41:15;23.75;;;5.80;;
11614;SDS011;5863;52.832;4.758;2024-01-25T13:43:42;25.73;;;6.07;;
11614;SDS011;5863;52.832;4.758;2024-01-25T13:46:09;24.25;;;6.03;;
11614;SDS011;5863;52.832;4.758;2024-01-25T13:48:36;27.05;;;5.85;;
11614;SDS011;5863;52.832;4.758;2024-01-25T13:51:04;28.67;;;5.85;;
11614;SDS011;5863;52.832;4.758;2024-01-25T13:53:31;32.20;;;5.88;;
11614;SDS011;5863;52.832;4.758;2024-01-25T13:55:59;30.70;;;5.68;;
11614;SDS011;5863;52.832;4.758;2024-01-25T13:58:25;20.40;;;5.10;;
11614;SDS011;5863;52.832;4.758;2024-01-25T14:00:52;24.52;;;5.78;;
11614;SDS011;5863;52.832;4.758;2024-01-25T14:03:19;26.38;;;6.28;;
11614;SDS011;5863;52.832;4.758;2024-01-25T14:05:46;23.90;;;6.18;;
11614;SDS011;5863;52.832;4.758;2024-01-25T14:08:14;24.75;;;6.32;;
11614;SDS011;5863;52.832;4.758;2024-01-25T14:10:41;27.40;;;6.05;;
11614;SDS011;5863;52.832;4.758;2024-01-25T14:13:08;27.80;;;5.57;;
11614;SDS011;5863;52.832;4.758;2024-01-25T14:15:35;28.42;;;5.97;;
11614;SDS011;5863;52.832;4.758;2024-01-25T14:18:02;30.83;;;5.75;;
11614;SDS011;5863;52.832;4.758;2024-01-25T14:20:29;25.48;;;6.25;;
11614;SDS011;5863;52.832;4.758;2024-01-25T14:22:56;22.20;;;5.85;;
11614;SDS011;5863;52.832;4.758;2024-01-25T14:25:24;39.95;;;6.80;;
11614;SDS011;5863;52.832;4.758;2024-01-25T14:27:51;27.73;;;6.45;;
11614;SDS011;5863;52.832;4.758;2024-01-25T14:30:18;29.13;;;6.45;;
11614;SDS011;5863;52.832;4.758;2024-01-25T14:32:45;26.95;;;6.00;;
11614;SDS011;5863;52.832;4.758;2024-01-25T14:35:12;25.10;;;5.78;;
11614;SDS011;5863;52.832;4.758;2024-01-25T14:37:39;22.45;;;5.97;;
11614;SDS011;5863;52.832;4.758;2024-01-25T14:40:07;27.42;;;5.57;;
11614;SDS011;5863;52.832;4.758;2024-01-25T14:42:35;25.25;;;5.82;;
11614;SDS011;5863;52.832;4.758;2024-01-25T14:45:04;21.83;;;5.82;;
11614;SDS011;5863;52.832;4.758;2024-01-25T14:47:31;25.80;;;5.78;;
11614;SDS011;5863;52.832;4.758;2024-01-25T14:49:58;26.33;;;5.97;;